createdAt,value
2023-01-26T00:01:16.160Z,99207.41
2023-01-26T00:03:43.523Z,99204.91
2023-01-26T00:06:12.658Z,99204.91
2023-01-26T00:08:47.184Z,99208.75
2023-01-26T00:11:16.323Z,99196.28
2023-01-26T00:13:43.275Z,99197.66
2023-01-26T00:16:15.014Z,99190.22
2023-01-26T00:18:42.804Z,99189.94
2023-01-26T00:21:16.547Z,99200.88
2023-01-26T00:23:43.496Z,99195.66
2023-01-26T00:26:13.880Z,99197.78
2023-01-26T00:28:40.544Z,99202.06
2023-01-26T00:31:10.841Z,99205.34
2023-01-26T00:33:37.437Z,99213.34
2023-01-26T00:36:04.406Z,99207.03
2023-01-26T00:38:31.250Z,99199.56
2023-01-26T00:40:57.883Z,99186.38
2023-01-26T00:43:24.588Z,99194.00
2023-01-26T00:45:51.246Z,99183.25
2023-01-26T00:48:17.867Z,99169.72
2023-01-26T00:50:44.536Z,99176.22
2023-01-26T00:53:11.293Z,99166.31
2023-01-26T00:55:38.137Z,99159.97
2023-01-26T00:58:06.724Z,99154.44
2023-01-26T01:00:36.053Z,99154.00
2023-01-26T01:03:03.547Z,99131.22
2023-01-26T01:05:32.407Z,99140.19
2023-01-26T01:07:59.449Z,99142.34
2023-01-26T01:10:29.071Z,99141.56
2023-01-26T01:12:56.651Z,99143.69
2023-01-26T01:15:23.746Z,99138.47
2023-01-26T01:17:50.425Z,99141.97
2023-01-26T01:20:17.308Z,99136.94
2023-01-26T01:22:43.981Z,99132.97
2023-01-26T01:25:10.617Z,99130.41
2023-01-26T01:27:37.234Z,99128.94
2023-01-26T01:30:07.802Z,99123.19
2023-01-26T01:32:37.493Z,99119.06
2023-01-26T01:35:04.419Z,99121.09
2023-01-26T01:37:31.202Z,99121.31
2023-01-26T01:39:57.931Z,99123.63
2023-01-26T01:42:25.670Z,99124.38
2023-01-26T01:45:34.426Z,99131.50
2023-01-26T01:48:05.146Z,99138.09
2023-01-26T01:50:38.094Z,99131.28
2023-01-26T01:53:07.097Z,99123.00
2023-01-26T01:55:33.756Z,99122.78
2023-01-26T01:58:03.128Z,99117.47
2023-01-26T02:00:29.781Z,99109.03
2023-01-26T02:03:21.058Z,99111.84
2023-01-26T02:06:02.515Z,99113.19
2023-01-26T02:08:50.928Z,99108.22
2023-01-26T02:11:20.184Z,99111.56
2023-01-26T02:13:49.470Z,99108.44
2023-01-26T02:16:18.111Z,99110.31
2023-01-26T02:18:46.180Z,99109.97
2023-01-26T02:21:18.369Z,99114.69
2023-01-26T02:23:55.762Z,99105.50
2023-01-26T02:26:28.165Z,99103.69
2023-01-26T02:28:55.362Z,99108.50
2023-01-26T02:31:24.183Z,99109.69
2023-01-26T02:33:51.534Z,99093.94
2023-01-26T02:36:24.504Z,99096.38
2023-01-26T02:39:15.430Z,99096.47
2023-01-26T02:42:01.415Z,99097.44
2023-01-26T02:44:29.658Z,99085.06
2023-01-26T02:46:56.412Z,99085.16
2023-01-26T02:49:41.497Z,99093.09
2023-01-26T02:52:08.568Z,99091.88
2023-01-26T02:54:55.766Z,99089.50
2023-01-26T02:57:22.295Z,99084.13
2023-01-26T02:59:48.837Z,99081.69
2023-01-26T03:02:15.888Z,99072.28
2023-01-26T03:04:43.460Z,99068.19
2023-01-26T03:07:10.743Z,99066.47
2023-01-26T03:09:37.596Z,99062.25
2023-01-26T03:12:04.685Z,99065.91
2023-01-26T03:14:31.375Z,99055.50
2023-01-26T03:16:57.998Z,99058.06
2023-01-26T03:19:43.384Z,99060.44
2023-01-26T03:22:29.762Z,99055.84
2023-01-26T03:25:15.254Z,99058.78
2023-01-26T03:27:44.966Z,99052.16
2023-01-26T03:30:13.393Z,99036.19
2023-01-26T03:32:40.505Z,99052.16
2023-01-26T03:35:07.869Z,99051.22
2023-01-26T03:37:37.073Z,99058.91
2023-01-26T03:40:23.063Z,99056.81
2023-01-26T03:43:07.936Z,99051.22
2023-01-26T03:45:53.459Z,99048.41
2023-01-26T03:48:38.235Z,99047.69
2023-01-26T03:51:23.620Z,99043.66
2023-01-26T03:54:08.969Z,99043.34
2023-01-26T03:56:35.638Z,99048.13
2023-01-26T03:59:15.341Z,99035.06
2023-01-26T04:02:05.347Z,99039.19
2023-01-26T04:04:50.793Z,99030.94
2023-01-26T04:07:36.170Z,99006.06
2023-01-26T04:10:02.743Z,99009.44
2023-01-26T04:12:29.398Z,99002.63
2023-01-26T04:15:14.349Z,98996.44
2023-01-26T04:17:59.532Z,98990.28
2023-01-26T04:20:44.966Z,98987.41
2023-01-26T04:23:18.996Z,98989.09
2023-01-26T04:25:45.627Z,98987.44
2023-01-26T04:28:12.295Z,98977.91
2023-01-26T04:30:39.414Z,98979.47
2023-01-26T04:33:05.981Z,98977.06
2023-01-26T04:35:33.863Z,98975.38
2023-01-26T04:38:00.514Z,98966.88
2023-01-26T04:40:27.082Z,98973.41
2023-01-26T04:42:53.680Z,98981.03
2023-01-26T04:45:20.259Z,98974.31
2023-01-26T04:47:46.916Z,98968.03
2023-01-26T04:50:13.773Z,98961.97
2023-01-26T04:52:40.477Z,98963.09
2023-01-26T04:55:07.322Z,98949.53
2023-01-26T04:57:33.898Z,98962.69
2023-01-26T05:00:00.545Z,98957.50
2023-01-26T05:02:27.092Z,98961.84
2023-01-26T05:04:53.688Z,98952.38
2023-01-26T05:07:20.253Z,98942.25
2023-01-26T05:09:46.845Z,98955.38
2023-01-26T05:12:32.272Z,98949.28
2023-01-26T05:14:58.876Z,98947.47
2023-01-26T05:17:25.519Z,98950.25
2023-01-26T05:19:52.038Z,98959.00
2023-01-26T05:22:18.590Z,98958.50
2023-01-26T05:24:45.107Z,98963.31
2023-01-26T05:27:23.557Z,98948.25
2023-01-26T05:29:51.451Z,98952.81
2023-01-26T05:32:18.455Z,98952.88
2023-01-26T05:34:45.337Z,98953.13
2023-01-26T05:37:14.628Z,98944.75
2023-01-26T05:39:41.731Z,98947.03
2023-01-26T05:42:08.409Z,98942.34
2023-01-26T05:44:34.963Z,98947.59
2023-01-26T05:47:01.566Z,98939.91
2023-01-26T05:49:28.169Z,98939.44
2023-01-26T05:51:54.743Z,98942.25
2023-01-26T05:54:21.334Z,98937.91
2023-01-26T05:56:48.003Z,98926.34
2023-01-26T05:59:15.031Z,98923.56
2023-01-26T06:01:41.973Z,98923.84
2023-01-26T06:04:08.719Z,98916.25
2023-01-26T06:06:35.326Z,98924.28
2023-01-26T06:09:01.886Z,98913.50
2023-01-26T06:11:28.457Z,98925.13
2023-01-26T06:13:55.083Z,98927.06
2023-01-26T06:16:21.795Z,98934.91
2023-01-26T06:18:51.983Z,98934.59
2023-01-26T06:21:18.557Z,98930.63
2023-01-26T06:23:45.246Z,98929.44
2023-01-26T06:26:11.941Z,98929.44
2023-01-26T06:28:38.582Z,98936.81
2023-01-26T06:31:07.609Z,98931.91
2023-01-26T06:33:36.482Z,98939.00
2023-01-26T06:36:04.742Z,98941.66
2023-01-26T06:38:32.608Z,98947.94
2023-01-26T06:41:03.025Z,98941.38
2023-01-26T06:43:30.781Z,98947.28
2023-01-26T06:45:58.352Z,98946.72
2023-01-26T06:48:25.966Z,98932.66
2023-01-26T06:50:53.339Z,98939.34
2023-01-26T06:53:30.781Z,98937.56
2023-01-26T06:55:57.432Z,98942.47
2023-01-26T06:58:24.137Z,98934.19
2023-01-26T07:00:51.191Z,98926.59
2023-01-26T07:03:17.779Z,98922.91
2023-01-26T07:05:44.427Z,98921.94
2023-01-26T07:08:11.069Z,98913.13
2023-01-26T07:10:37.841Z,98914.72
2023-01-26T07:13:05.780Z,98916.13
2023-01-26T07:15:32.777Z,98921.25
2023-01-26T07:18:00.310Z,98917.72
2023-01-26T07:20:27.800Z,98922.31
2023-01-26T07:22:54.485Z,98923.59
2023-01-26T07:25:21.067Z,98916.47
2023-01-26T07:27:47.737Z,98910.81
2023-01-26T07:30:14.613Z,98909.72
2023-01-26T07:32:41.407Z,98906.72
2023-01-26T07:35:08.905Z,98905.84
2023-01-26T07:37:35.511Z,98906.22
2023-01-26T07:40:02.454Z,98892.66
2023-01-26T07:42:31.069Z,98892.31
2023-01-26T07:44:57.833Z,98877.53
2023-01-26T07:47:24.540Z,98881.56
2023-01-26T07:49:51.214Z,98870.66
2023-01-26T07:52:17.869Z,98854.84
2023-01-26T07:54:44.500Z,98847.13
2023-01-26T07:57:12.554Z,98850.38
2023-01-26T07:59:39.140Z,98847.22
2023-01-26T08:02:06.108Z,98853.50
2023-01-26T08:04:32.681Z,98852.34
2023-01-26T08:06:59.309Z,98849.44
2023-01-26T08:09:26.569Z,98848.69
2023-01-26T08:11:53.287Z,98835.38
2023-01-26T08:14:19.877Z,98838.88
2023-01-26T08:16:46.645Z,98833.34
2023-01-26T08:19:15.399Z,98841.06
2023-01-26T08:21:41.938Z,98841.19
2023-01-26T08:24:08.779Z,98837.78
2023-01-26T08:26:35.353Z,98854.13
2023-01-26T08:29:01.990Z,98867.56
2023-01-26T08:31:28.721Z,98872.41
2023-01-26T08:33:56.177Z,98870.97
2023-01-26T08:36:23.338Z,98869.75
2023-01-26T08:38:51.079Z,98872.03
2023-01-26T08:41:18.043Z,98880.25
2023-01-26T08:43:44.902Z,98864.53
2023-01-26T08:46:11.696Z,98867.56
2023-01-26T08:48:38.795Z,98858.59
2023-01-26T08:51:07.016Z,98864.78
2023-01-26T08:53:37.315Z,98854.63
2023-01-26T08:56:06.286Z,98859.09
2023-01-26T08:58:33.834Z,98842.03
2023-01-26T09:01:07.507Z,98840.81
2023-01-26T09:03:34.535Z,98844.44
2023-01-26T09:06:02.015Z,98843.09
2023-01-26T09:08:28.896Z,98834.13
2023-01-26T09:10:55.536Z,98840.19
2023-01-26T09:13:22.318Z,98822.88
2023-01-26T09:15:48.972Z,98836.78
2023-01-26T09:18:15.666Z,98815.22
2023-01-26T09:20:42.431Z,98808.44
2023-01-26T09:23:10.221Z,98811.84
2023-01-26T09:25:37.590Z,98793.22
2023-01-26T09:28:05.671Z,98793.47
2023-01-26T09:30:32.663Z,98775.56
2023-01-26T09:33:00.548Z,98772.97
2023-01-26T09:35:28.273Z,98769.63
2023-01-26T09:37:55.133Z,98759.28
2023-01-26T09:40:45.207Z,98753.38
2023-01-26T09:43:48.945Z,98748.84
2023-01-26T09:46:43.308Z,98749.13
2023-01-26T09:49:42.157Z,98736.84
2023-01-26T09:52:18.168Z,98730.88
2023-01-26T09:54:51.482Z,98729.06
2023-01-26T09:57:47.127Z,98714.25
2023-01-26T10:00:26.263Z,98722.84
2023-01-26T10:03:03.904Z,98717.00
2023-01-26T10:05:58.061Z,98709.34
2023-01-26T10:08:26.960Z,98703.88
2023-01-26T10:11:02.239Z,98704.50
2023-01-26T10:13:30.542Z,98703.81
2023-01-26T10:16:10.539Z,98699.91
2023-01-26T10:19:00.220Z,98698.69
2023-01-26T10:21:33.295Z,98681.44
2023-01-26T10:24:03.029Z,98685.91
2023-01-26T10:26:34.136Z,98665.16
2023-01-26T10:29:01.396Z,98663.22
2023-01-26T10:31:33.335Z,98648.63
2023-01-26T10:34:14.736Z,98634.31
2023-01-26T10:36:44.466Z,98637.59
2023-01-26T10:39:15.430Z,98618.41
2023-01-26T10:42:04.504Z,98609.72
2023-01-26T10:44:39.425Z,98599.31
2023-01-26T10:47:18.168Z,98592.13
2023-01-26T10:49:44.768Z,98598.03
2023-01-26T10:52:29.234Z,98598.59
2023-01-26T10:55:19.915Z,98593.78
2023-01-26T10:57:46.670Z,98587.19
2023-01-26T11:00:20.085Z,98580.88
2023-01-26T11:02:52.863Z,98578.78
2023-01-26T11:05:24.786Z,98565.81
2023-01-26T11:08:00.198Z,98563.34
2023-01-26T11:10:35.909Z,98543.84
2023-01-26T11:13:20.882Z,98541.16
2023-01-26T11:16:01.813Z,98537.50
2023-01-26T11:18:31.449Z,98544.09
2023-01-26T11:21:11.085Z,98537.63
2023-01-26T11:24:00.908Z,98533.53
2023-01-26T11:26:58.804Z,98540.69
2023-01-26T11:29:34.107Z,98547.84
2023-01-26T11:32:32.684Z,98547.28
2023-01-26T11:35:36.120Z,98544.19
2023-01-26T11:38:09.657Z,98543.34
2023-01-26T11:40:45.502Z,98543.50
2023-01-26T11:43:49.453Z,98522.56
2023-01-26T11:46:42.089Z,98519.38
2023-01-26T11:49:38.934Z,98521.59
2023-01-26T11:52:24.147Z,98518.41
2023-01-26T11:55:09.949Z,98509.25
2023-01-26T11:57:36.712Z,98511.94
2023-01-26T12:00:29.616Z,98508.41
2023-01-26T12:03:04.735Z,98493.38
2023-01-26T12:05:44.317Z,98490.38
2023-01-26T12:08:20.160Z,98483.56
2023-01-26T12:11:22.342Z,98474.97
2023-01-26T12:14:04.554Z,98469.50
2023-01-26T12:16:43.381Z,98456.88
2023-01-26T12:19:12.738Z,98453.75
2023-01-26T12:21:45.221Z,98445.59
2023-01-26T12:25:01.065Z,98453.75
2023-01-26T12:27:42.487Z,98440.56
2023-01-26T12:30:43.123Z,98436.22
2023-01-26T12:33:13.117Z,98437.19
2023-01-26T12:36:11.135Z,98427.91
2023-01-26T12:38:53.565Z,98432.00
2023-01-26T12:41:41.136Z,98437.88
2023-01-26T12:44:17.309Z,98447.75
2023-01-26T12:46:52.460Z,98442.97
2023-01-26T12:49:34.168Z,98438.88
2023-01-26T12:52:08.057Z,98438.34
2023-01-26T12:54:44.681Z,98440.72
2023-01-26T12:57:20.194Z,98439.75
2023-01-26T12:59:49.207Z,98438.06
2023-01-26T13:02:15.973Z,98431.88
2023-01-26T13:04:47.251Z,98421.59
2023-01-26T13:07:39.534Z,98419.06
2023-01-26T13:10:28.529Z,98419.22
2023-01-26T13:12:55.076Z,98423.28
2023-01-26T13:15:29.956Z,98418.06
2023-01-26T13:18:00.577Z,98408.09
2023-01-26T13:20:47.805Z,98405.13
2023-01-26T13:23:41.318Z,98398.28
2023-01-26T13:26:25.539Z,98398.94
2023-01-26T13:28:53.503Z,98395.00
2023-01-26T13:31:33.018Z,98393.63
2023-01-26T13:34:07.778Z,98397.84
2023-01-26T13:36:39.138Z,98399.66
2023-01-26T13:39:14.434Z,98391.09
2023-01-26T13:41:47.465Z,98399.78
2023-01-26T13:44:28.615Z,98380.38
2023-01-26T13:47:05.771Z,98377.03
2023-01-26T13:49:39.597Z,98374.50
2023-01-26T13:52:19.118Z,98374.09
2023-01-26T13:54:47.653Z,98375.63
2023-01-26T13:57:25.688Z,98362.53
2023-01-26T13:59:54.661Z,98343.28
2023-01-26T14:02:26.706Z,98342.19
2023-01-26T14:04:55.681Z,98343.00
2023-01-26T14:07:27.297Z,98328.66
2023-01-26T14:09:56.044Z,98327.69
2023-01-26T14:12:25.435Z,98308.69
2023-01-26T14:14:59.663Z,98303.50
2023-01-26T14:17:46.455Z,98298.97
2023-01-26T14:20:44.895Z,98295.44
2023-01-26T14:23:14.239Z,98281.94
2023-01-26T14:25:46.481Z,98291.50
2023-01-26T14:28:15.986Z,98285.84
2023-01-26T14:30:43.414Z,98275.16
2023-01-26T14:33:15.321Z,98271.25
2023-01-26T14:35:57.083Z,98270.13
2023-01-26T14:38:24.075Z,98258.88
2023-01-26T14:40:58.278Z,98263.78
2023-01-26T14:43:27.208Z,98253.06
2023-01-26T14:46:05.820Z,98243.66
2023-01-26T14:48:37.798Z,98247.88
2023-01-26T14:51:08.220Z,98243.19
2023-01-26T14:53:34.974Z,98234.38
2023-01-26T14:56:01.672Z,98248.41
2023-01-26T14:58:32.306Z,98238.97
2023-01-26T15:01:00.549Z,98232.22
2023-01-26T15:03:36.400Z,98231.75
2023-01-26T15:06:15.416Z,98227.25
2023-01-26T15:08:52.395Z,98220.25
2023-01-26T15:11:45.863Z,98212.38
2023-01-26T15:14:27.391Z,98206.19
2023-01-26T15:16:54.958Z,98208.56
2023-01-26T15:19:25.644Z,98200.53
2023-01-26T15:21:52.455Z,98201.91
2023-01-26T15:24:19.174Z,98200.63
2023-01-26T15:26:45.846Z,98191.75
2023-01-26T15:29:34.808Z,98180.09
2023-01-26T15:32:01.707Z,98176.56
2023-01-26T15:34:37.140Z,98158.88
2023-01-26T15:37:30.001Z,98162.63
2023-01-26T15:39:56.983Z,98159.53
2023-01-26T15:42:30.193Z,98165.88
2023-01-26T15:44:57.569Z,98156.56
2023-01-26T15:47:24.167Z,98166.81
2023-01-26T15:49:50.841Z,98170.47
2023-01-26T15:52:25.706Z,98157.66
2023-01-26T15:54:53.869Z,98159.50
2023-01-26T15:57:20.396Z,98166.81
2023-01-26T15:59:47.151Z,98166.28
2023-01-26T16:02:19.543Z,98170.00
2023-01-26T16:04:46.530Z,98174.50
2023-01-26T16:07:15.394Z,98165.50
2023-01-26T16:09:42.295Z,98160.03
2023-01-26T16:12:30.538Z,98156.50
2023-01-26T16:14:58.495Z,98145.81
2023-01-26T16:17:25.073Z,98152.38
2023-01-26T16:19:51.696Z,98142.69
2023-01-26T16:22:18.348Z,98153.50
2023-01-26T16:24:45.582Z,98162.25
2023-01-26T16:27:12.291Z,98149.22
2023-01-26T16:29:38.866Z,98156.56
2023-01-26T16:32:35.492Z,98152.22
2023-01-26T16:35:02.127Z,98146.88
2023-01-26T16:37:28.704Z,98145.34
2023-01-26T16:39:55.310Z,98136.19
2023-01-26T16:42:22.205Z,98131.34
2023-01-26T16:44:49.015Z,98122.97
2023-01-26T16:47:15.561Z,98124.19
2023-01-26T16:49:42.151Z,98122.34
2023-01-26T16:52:09.959Z,98122.03
2023-01-26T16:54:36.834Z,98120.38
2023-01-26T16:57:03.753Z,98120.38
2023-01-26T16:59:30.393Z,98123.19
2023-01-26T17:01:57.300Z,98123.72
2023-01-26T17:04:23.937Z,98121.50
2023-01-26T17:06:50.540Z,98121.50
2023-01-26T17:09:17.094Z,98121.50
2023-01-26T17:11:43.691Z,98107.59
2023-01-26T17:14:11.929Z,98099.78
2023-01-26T17:16:38.724Z,98097.97
2023-01-26T17:19:07.301Z,98080.94
2023-01-26T17:21:35.570Z,98084.59
2023-01-26T17:24:02.255Z,98079.78
2023-01-26T17:26:28.907Z,98066.25
2023-01-26T17:28:56.113Z,98057.19
2023-01-26T17:31:24.098Z,98063.22
2023-01-26T17:33:51.496Z,98055.03
2023-01-26T17:36:19.917Z,98052.50
2023-01-26T17:38:48.107Z,98045.13
2023-01-26T17:41:15.510Z,98043.13
2023-01-26T17:43:42.085Z,98035.09
2023-01-26T17:46:15.266Z,98030.59
2023-01-26T17:48:45.380Z,98033.38
2023-01-26T17:51:17.593Z,98041.75
2023-01-26T17:53:45.728Z,98041.22
2023-01-26T17:56:15.822Z,98039.88
2023-01-26T17:58:42.406Z,98035.38
2023-01-26T18:01:10.384Z,98033.91
2023-01-26T18:03:41.877Z,98030.72
2023-01-26T18:06:09.606Z,98026.75
2023-01-26T18:08:37.736Z,98023.88
2023-01-26T18:11:06.249Z,98032.53
2023-01-26T18:13:33.526Z,98006.09
2023-01-26T18:16:00.537Z,98006.81
2023-01-26T18:18:29.200Z,98003.28
2023-01-26T18:20:55.835Z,97992.97
2023-01-26T18:23:24.231Z,97991.94
2023-01-26T18:25:51.466Z,97985.41
2023-01-26T18:28:18.136Z,97988.41
2023-01-26T18:30:44.894Z,97976.88
2023-01-26T18:33:11.548Z,97979.31
2023-01-26T18:35:38.234Z,97979.22
2023-01-26T18:38:04.890Z,97973.88
2023-01-26T18:40:31.478Z,97964.63
2023-01-26T18:42:58.199Z,97971.66
2023-01-26T18:45:24.845Z,97980.38
2023-01-26T18:47:51.425Z,97966.00
2023-01-26T18:50:18.307Z,97965.53
2023-01-26T18:52:44.899Z,97977.25
2023-01-26T18:55:11.890Z,97976.69
2023-01-26T18:57:38.930Z,97976.69
2023-01-26T19:00:08.212Z,97975.88
2023-01-26T19:02:38.424Z,97973.34
2023-01-26T19:05:07.511Z,97961.78
2023-01-26T19:07:35.108Z,97967.16
2023-01-26T19:10:02.095Z,97965.47
2023-01-26T19:12:28.680Z,97960.13
2023-01-26T19:14:55.296Z,97959.28
2023-01-26T19:17:21.958Z,97955.81
2023-01-26T19:19:48.519Z,97951.81
2023-01-26T19:22:15.175Z,97944.09
2023-01-26T19:24:43.075Z,97943.13
2023-01-26T19:27:09.928Z,97936.09
2023-01-26T19:29:36.721Z,97929.44
2023-01-26T19:32:03.528Z,97928.28
2023-01-26T19:34:31.983Z,97927.44
2023-01-26T19:36:58.808Z,97912.53
2023-01-26T19:39:25.610Z,97914.22
2023-01-26T19:41:52.497Z,97919.78
2023-01-26T19:44:19.289Z,97924.13
2023-01-26T19:46:45.921Z,97917.78
2023-01-26T19:49:13.580Z,97907.59
2023-01-26T19:51:40.274Z,97907.59
2023-01-26T19:54:06.963Z,97893.25
2023-01-26T19:56:36.284Z,97896.13
2023-01-26T19:59:05.686Z,97892.59
2023-01-26T20:01:33.277Z,97873.72
2023-01-26T20:04:09.324Z,97884.09
2023-01-26T20:06:37.204Z,97888.78
2023-01-26T20:09:05.316Z,97884.09
2023-01-26T20:11:32.013Z,97888.59
2023-01-26T20:14:01.485Z,97875.09
2023-01-26T20:16:29.685Z,97876.25
2023-01-26T20:18:57.509Z,97874.56
2023-01-26T20:21:24.831Z,97869.75
2023-01-26T20:23:55.464Z,97865.88
2023-01-26T20:26:24.757Z,97867.06
2023-01-26T20:28:52.423Z,97850.19
2023-01-26T20:31:21.699Z,97845.34
2023-01-26T20:33:49.991Z,97836.31
2023-01-26T20:36:19.609Z,97848.00
2023-01-26T20:38:48.039Z,97826.09
2023-01-26T20:41:17.436Z,97837.81
2023-01-26T20:43:58.564Z,97826.81
2023-01-26T20:46:26.878Z,97832.31
2023-01-26T20:48:55.734Z,97851.38
2023-01-26T20:51:26.386Z,97835.16
2023-01-26T20:53:52.946Z,97832.47
2023-01-26T20:56:21.771Z,97830.81
2023-01-26T20:58:51.132Z,97820.75
2023-01-26T21:01:17.733Z,97823.94
2023-01-26T21:03:44.708Z,97819.63
2023-01-26T21:06:14.097Z,97815.41
2023-01-26T21:08:41.465Z,97815.09
2023-01-26T21:11:12.304Z,97806.91
2023-01-26T21:13:41.256Z,97806.75
2023-01-26T21:16:13.309Z,97806.91
2023-01-26T21:18:40.524Z,97796.22
2023-01-26T21:21:08.927Z,97793.88
2023-01-26T21:23:36.102Z,97791.88
2023-01-26T21:26:06.311Z,97773.81
2023-01-26T21:28:33.540Z,97783.69
2023-01-26T21:31:02.649Z,97776.34
2023-01-26T21:33:33.629Z,97766.66
2023-01-26T21:36:02.386Z,97765.03
2023-01-26T21:38:34.425Z,97769.88
2023-01-26T21:41:03.485Z,97773.38
2023-01-26T21:43:30.628Z,97766.00
2023-01-26T21:45:57.913Z,97756.09
2023-01-26T21:48:28.276Z,97763.13
2023-01-26T21:51:13.991Z,97764.78
2023-01-26T21:53:40.627Z,97748.09
2023-01-26T21:56:07.375Z,97761.31
2023-01-26T21:58:52.650Z,97744.13
2023-01-26T22:01:19.773Z,97736.41
2023-01-26T22:03:46.363Z,97730.75
2023-01-26T22:06:12.977Z,97728.38
2023-01-26T22:08:39.622Z,97725.38
2023-01-26T22:11:06.280Z,97723.72
2023-01-26T22:13:35.137Z,97712.81
2023-01-26T22:16:04.400Z,97722.00
2023-01-26T22:18:31.347Z,97719.50
2023-01-26T22:20:58.068Z,97707.13
2023-01-26T22:23:24.672Z,97705.13
2023-01-26T22:25:51.262Z,97701.47
2023-01-26T22:28:17.863Z,97695.97
2023-01-26T22:30:44.497Z,97695.13
2023-01-26T22:33:11.110Z,97700.59
2023-01-26T22:35:37.695Z,97679.91
2023-01-26T22:38:04.389Z,97688.59
2023-01-26T22:40:31.265Z,97685.91
2023-01-26T22:42:58.062Z,97680.25
2023-01-26T22:45:24.772Z,97681.22
2023-01-26T22:47:51.367Z,97664.19
2023-01-26T22:50:18.094Z,97666.66
2023-01-26T22:52:44.749Z,97675.88
2023-01-26T22:55:11.417Z,97673.38
2023-01-26T22:57:38.435Z,97684.09
2023-01-26T23:00:06.480Z,97677.25
2023-01-26T23:02:33.165Z,97672.53
2023-01-26T23:04:59.815Z,97674.06
2023-01-26T23:07:26.460Z,97670.41
2023-01-26T23:09:53.075Z,97669.06
2023-01-26T23:12:19.660Z,97667.53
2023-01-26T23:14:46.275Z,97666.19
2023-01-26T23:17:12.871Z,97660.50
2023-01-26T23:19:39.439Z,97653.00
2023-01-26T23:22:06.078Z,97646.31
2023-01-26T23:24:32.652Z,97658.53
2023-01-26T23:26:59.190Z,97641.47
2023-01-26T23:29:25.878Z,97645.63
2023-01-26T23:31:52.514Z,97632.59
2023-01-26T23:34:19.160Z,97629.44
2023-01-26T23:36:45.761Z,97622.75
2023-01-26T23:39:12.435Z,97609.88
2023-01-26T23:41:39.009Z,97594.94
2023-01-26T23:44:05.610Z,97587.28
2023-01-26T23:46:32.295Z,97573.41
2023-01-26T23:48:58.916Z,97566.88
2023-01-26T23:51:25.489Z,97560.00
2023-01-26T23:53:52.174Z,97550.31
2023-01-26T23:56:18.810Z,97554.34
2023-01-26T23:58:45.913Z,97569.88
